Time;durP1;ratioP1;P1;durP2;ratioP2;P2;SDS_P1;SDS_P2;PMS_P1;PMS_P2;Temp;Humidity;BMP_temperature;BMP_pressure;BME280_temperature;BME280_humidity;BME280_pressure;Samples;Min_cycle;Max_cycle;Signal;HPM_P1;HPM_P2
2022/04/26 03:36:11;;;;;;;12.73;9.77;;;10.40;83.50;;;;;;4981343;28;20472;-42
2022/04/26 03:38:41;;;;;;;14.33;10.63;;;10.40;83.70;;;;;;4980229;28;20476;-42
2022/04/26 03:41:08;;;;;;;14.60;11.50;;;10.40;83.80;;;;;;4977933;28;20973;-41
2022/04/26 03:43:35;;;;;;;16.80;11.13;;;10.40;84.20;;;;;;4979864;28;20527;-41
2022/04/26 03:46:02;;;;;;;16.80;11.57;;;10.40;84.30;;;;;;4961266;28;20448;-41
2022/04/26 03:48:29;;;;;;;13.40;10.60;;;10.40;84.50;;;;;;4976034;28;20527;-42
2022/04/26 03:50:56;;;;;;;14.83;12.10;;;10.50;85.00;;;;;;4973757;28;20826;-51
2022/04/26 03:53:23;;;;;;;14.33;11.60;;;10.50;84.80;;;;;;4981081;28;20466;-43
2022/04/26 03:55:56;;;;;;;14.23;11.00;;;10.50;85.10;;;;;;4978758;28;20469;-42
2022/04/26 03:58:24;;;;;;;14.60;10.83;;;10.50;85.10;;;;;;4963711;28;20515;-42
2022/04/26 04:00:52;;;;;;;13.30;10.83;;;10.40;85.10;;;;;;4981780;28;20483;-42
2022/04/26 04:03:19;;;;;;;12.30;10.00;;;10.40;85.10;;;;;;4979075;28;20476;-42
2022/04/26 04:05:46;;;;;;;13.20;10.60;;;10.40;85.30;;;;;;4966401;28;20467;-41
2022/04/26 04:08:12;;;;;;;14.50;10.90;;;10.40;85.30;;;;;;4962712;28;20505;-41
2022/04/26 04:10:40;;;;;;;14.20;11.53;;;10.40;85.40;;;;;;4978132;28;20495;-43
2022/04/26 04:13:06;;;;;;;13.77;11.50;;;10.40;85.60;;;;;;4982108;28;20491;-42
2022/04/26 04:15:33;;;;;;;14.43;11.87;;;10.40;85.80;;;;;;4978897;28;20460;-42
2022/04/26 04:18:00;;;;;;;14.60;11.00;;;10.40;85.90;;;;;;4977321;28;20468;-42
2022/04/26 04:20:29;;;;;;;14.50;10.87;;;10.50;85.80;;;;;;4978776;28;20555;-42
2022/04/26 04:22:56;;;;;;;16.37;11.83;;;10.50;85.70;;;;;;4979560;28;21265;-42
2022/04/26 04:25:23;;;;;;;15.40;11.43;;;10.40;85.80;;;;;;4968162;28;20522;-41
2022/04/26 04:27:50;;;;;;;14.77;11.67;;;10.40;85.90;;;;;;4963881;28;20510;-41
2022/04/26 04:30:20;;;;;;;14.77;10.83;;;10.40;85.90;;;;;;4984426;28;20459;-41
2022/04/26 04:32:47;;;;;;;16.17;12.30;;;10.40;86.00;;;;;;4981347;28;20477;-41
2022/04/26 04:35:14;;;;;;;14.90;11.13;;;10.40;86.10;;;;;;4980064;28;20473;-41
2022/04/26 04:37:40;;;;;;;14.33;11.37;;;10.40;86.30;;;;;;4983469;28;20467;-41
2022/04/26 04:40:13;;;;;;;12.53;10.13;;;10.40;86.00;;;;;;4979868;28;20556;-42
2022/04/26 04:42:40;;;;;;;13.43;11.30;;;10.40;85.90;;;;;;4984789;28;20845;-41
2022/04/26 04:45:07;;;;;;;15.77;11.30;;;10.50;86.00;;;;;;4978466;28;20476;-41
2022/04/26 04:47:34;;;;;;;16.07;12.23;;;10.40;86.00;;;;;;4982403;28;20926;-41
2022/04/26 04:50:01;;;;;;;15.60;11.53;;;10.40;86.20;;;;;;4981157;28;20474;-42
2022/04/26 04:52:27;;;;;;;11.87;10.40;;;10.40;86.30;;;;;;4988381;28;20471;-42
2022/04/26 04:54:54;;;;;;;14.63;11.30;;;10.40;86.30;;;;;;4982220;28;20455;-42
2022/04/26 04:57:21;;;;;;;15.63;10.87;;;10.50;86.30;;;;;;4983852;28;20978;-42
2022/04/26 04:59:48;;;;;;;14.57;11.30;;;10.50;86.30;;;;;;4983645;28;20465;-42
2022/04/26 05:02:14;;;;;;;12.40;11.10;;;10.50;86.10;;;;;;4983351;28;20678;-42
2022/04/26 05:04:42;;;;;;;11.70;9.97;;;10.50;86.10;;;;;;4984109;28;20847;-42
2022/04/26 05:07:09;;;;;;;10.20;9.20;;;10.50;85.80;;;;;;4981970;28;20976;-42
2022/04/26 05:09:37;;;;;;;11.00;9.40;;;10.50;86.00;;;;;;4977616;28;20464;-42
2022/04/26 05:12:04;;;;;;;10.33;7.73;;;10.50;86.20;;;;;;4983377;28;20496;-42
2022/04/26 05:14:32;;;;;;;8.90;8.00;;;10.50;86.00;;;;;;4981621;28;20962;-42
2022/04/26 05:16:59;;;;;;;8.50;7.00;;;10.50;86.10;;;;;;4983785;28;20456;-42
2022/04/26 05:19:25;;;;;;;7.70;6.60;;;10.50;86.20;;;;;;4984779;28;21048;-42
2022/04/26 05:21:52;;;;;;;6.70;6.07;;;10.50;86.30;;;;;;4982885;28;20470;-43
2022/04/26 05:27:05;;;;;;;6.47;5.83;;;10.60;86.00;;;;;;4978081;28;20460;-41
2022/04/26 05:29:31;;;;;;;6.50;5.43;;;10.60;86.10;;;;;;4984132;28;20544;-41
2022/04/26 05:31:59;;;;;;;7.70;6.50;;;10.50;86.30;;;;;;4982071;28;20495;-42
2022/04/26 05:34:27;;;;;;;6.30;5.60;;;10.50;86.40;;;;;;4960711;28;20541;-42
2022/04/26 05:36:56;;;;;;;6.03;5.43;;;10.50;86.40;;;;;;4981770;28;20456;-42
2022/04/26 05:39:22;;;;;;;7.20;6.17;;;10.50;86.60;;;;;;4980659;28;20453;-42
2022/04/26 05:41:49;;;;;;;6.27;5.67;;;10.50;86.60;;;;;;4963845;28;20463;-42
2022/04/26 05:44:16;;;;;;;6.40;5.63;;;10.50;86.60;;;;;;4980350;28;21010;-42
2022/04/26 05:46:42;;;;;;;5.97;5.47;;;10.60;86.40;;;;;;4966023;28;20464;-42
2022/04/26 05:49:09;;;;;;;8.60;6.90;;;10.60;86.50;;;;;;4982890;28;20480;-42
2022/04/26 05:51:36;;;;;;;8.40;7.33;;;10.60;86.60;;;;;;4979728;28;20874;-42
2022/04/26 05:54:03;;;;;;;10.63;7.87;;;10.60;86.60;;;;;;4977321;28;20472;-42
2022/04/26 05:56:30;;;;;;;9.40;8.10;;;10.50;86.60;;;;;;4983669;28;20473;-42
2022/04/26 05:58:56;;;;;;;7.87;6.63;;;10.50;86.60;;;;;;4969647;28;20467;-42
2022/04/26 06:01:23;;;;;;;12.83;8.37;;;10.60;86.70;;;;;;4981842;28;21149;-42
2022/04/26 06:03:50;;;;;;;7.73;6.40;;;10.70;86.20;;;;;;4981374;28;21134;-43
2022/04/26 06:06:17;;;;;;;7.70;6.83;;;10.60;86.10;;;;;;4983258;28;20468;-48
2022/04/26 06:08:44;;;;;;;11.20;7.07;;;10.60;86.40;;;;;;4999082;28;20535;-47
2022/04/26 06:11:15;;;;;;;8.90;7.33;;;10.60;86.50;;;;;;4994179;28;20879;-47
2022/04/26 06:13:42;;;;;;;9.00;8.10;;;10.60;86.70;;;;;;4985787;28;20961;-46
2022/04/26 06:16:09;;;;;;;9.97;8.10;;;10.70;86.60;;;;;;5000735;28;20540;-47
2022/04/26 06:18:36;;;;;;;8.63;7.83;;;10.60;86.70;;;;;;4988998;28;20465;-46
2022/04/26 06:21:03;;;;;;;9.70;8.00;;;10.60;86.80;;;;;;4984884;28;20519;-47
2022/04/26 06:23:29;;;;;;;9.07;7.60;;;10.60;86.90;;;;;;5004625;28;20517;-47
2022/04/26 06:25:58;;;;;;;9.73;7.83;;;10.60;87.00;;;;;;4995451;28;20571;-46
2022/04/26 06:28:26;;;;;;;9.83;7.63;;;10.70;87.00;;;;;;4989231;28;20724;-47
2022/04/26 06:30:54;;;;;;;9.73;7.67;;;10.70;86.90;;;;;;4983958;28;20464;-46
2022/04/26 06:33:21;;;;;;;8.37;7.50;;;10.70;86.80;;;;;;4990403;28;20502;-46
2022/04/26 06:35:51;;;;;;;9.70;8.27;;;10.70;86.80;;;;;;5004449;28;20494;-47
2022/04/26 06:38:18;;;;;;;9.53;7.67;;;10.70;86.90;;;;;;5003291;28;20464;-47
2022/04/26 06:40:46;;;;;;;9.73;7.20;;;10.80;87.00;;;;;;5003178;28;20545;-47
2022/04/26 06:43:13;;;;;;;8.97;8.07;;;10.80;86.90;;;;;;5002758;28;20465;-47
2022/04/26 06:45:41;;;;;;;7.63;6.30;;;10.80;86.90;;;;;;4998510;28;20461;-47
2022/04/26 06:48:11;;;;;;;9.60;7.30;;;10.90;86.90;;;;;;4982725;28;20501;-46
2022/04/26 06:50:38;;;;;;;6.97;6.27;;;10.90;86.80;;;;;;5000682;28;20468;-47
2022/04/26 06:53:06;;;;;;;7.70;6.90;;;10.90;86.80;;;;;;5001680;28;21041;-47
2022/04/26 06:55:33;;;;;;;7.33;6.63;;;10.90;86.70;;;;;;5000546;28;20462;-47
2022/04/26 06:58:00;;;;;;;6.53;5.20;;;10.90;86.60;;;;;;4985511;28;20603;-47
2022/04/26 07:00:27;;;;;;;6.80;5.33;;;11.00;86.60;;;;;;4999366;28;20559;-47
2022/04/26 07:02:54;;;;;;;7.33;6.20;;;11.00;86.60;;;;;;4994194;28;20565;-47
2022/04/26 07:05:24;;;;;;;5.70;5.10;;;11.00;86.40;;;;;;4997504;28;20449;-47
2022/04/26 07:07:52;;;;;;;7.90;6.13;;;11.00;86.30;;;;;;4998776;28;20474;-47
2022/04/26 07:10:20;;;;;;;6.77;5.80;;;11.00;86.30;;;;;;4992974;28;20790;-47
2022/04/26 07:12:47;;;;;;;7.50;5.70;;;11.10;86.20;;;;;;4990790;28;20480;-47
2022/04/26 07:15:14;;;;;;;7.00;6.00;;;11.10;85.90;;;;;;4991909;28;20452;-47
2022/04/26 07:17:41;;;;;;;8.43;6.10;;;11.20;85.40;;;;;;4995420;28;20520;-47
2022/04/26 07:20:09;;;;;;;6.07;5.47;;;11.20;84.90;;;;;;4995993;28;20449;-47
2022/04/26 07:22:36;;;;;;;7.37;6.30;;;11.30;84.70;;;;;;4977332;28;20460;-47
2022/04/26 07:25:05;;;;;;;8.03;6.13;;;11.20;84.80;;;;;;4994529;28;20457;-47
2022/04/26 07:27:32;;;;;;;7.77;6.97;;;11.20;85.20;;;;;;4997686;28;20535;-47
2022/04/26 07:30:00;;;;;;;7.90;6.93;;;11.20;85.40;;;;;;4997579;28;21188;-47
2022/04/26 07:35:12;;;;;;;6.27;5.20;;;11.20;85.90;;;;;;4992823;28;20481;-47
2022/04/26 07:37:39;;;;;;;7.77;6.23;;;11.20;85.90;;;;;;4998463;28;20464;-47
2022/04/26 07:40:08;;;;;;;7.40;6.30;;;11.20;85.90;;;;;;4996174;28;20515;-47
2022/04/26 07:42:35;;;;;;;7.23;6.47;;;11.30;85.90;;;;;;4995042;28;20457;-47
2022/04/26 07:45:01;;;;;;;8.53;6.67;;;11.30;86.10;;;;;;4991340;28;20472;-47
2022/04/26 07:47:30;;;;;;;7.00;5.57;;;11.40;86.00;;;;;;4995207;28;20500;-47
2022/04/26 07:50:01;;;;;;;7.43;6.60;;;11.40;85.90;;;;;;4992649;28;20592;-47
2022/04/26 07:52:28;;;;;;;7.30;6.27;;;11.40;85.70;;;;;;4971424;28;21047;-47
2022/04/26 07:54:55;;;;;;;7.40;6.70;;;11.50;85.80;;;;;;4994423;28;20881;-46
2022/04/26 07:57:22;;;;;;;7.47;5.93;;;11.50;85.60;;;;;;4990771;28;20488;-47
2022/04/26 07:59:49;;;;;;;7.07;6.33;;;11.50;85.10;;;;;;4986278;28;20572;-47
2022/04/26 08:02:16;;;;;;;6.90;5.97;;;11.50;85.10;;;;;;4997171;28;20519;-47
2022/04/26 08:04:45;;;;;;;8.10;6.10;;;11.50;85.20;;;;;;4994823;28;20470;-47
2022/04/26 08:07:12;;;;;;;9.50;6.43;;;11.50;85.10;;;;;;4997019;28;20959;-47
2022/04/26 08:09:39;;;;;;;6.37;5.73;;;11.50;85.20;;;;;;4989148;28;20492;-47
2022/04/26 08:12:07;;;;;;;8.27;6.60;;;11.40;85.10;;;;;;4995084;28;20900;-47
2022/04/26 08:14:34;;;;;;;8.50;6.23;;;11.50;85.40;;;;;;4993254;28;20535;-47
2022/04/26 08:17:02;;;;;;;9.30;6.57;;;11.50;85.30;;;;;;4976273;28;20550;-47
2022/04/26 08:19:29;;;;;;;7.97;5.57;;;11.50;85.30;;;;;;4994267;28;20468;-47
2022/04/26 08:21:56;;;;;;;8.07;5.30;;;11.50;85.10;;;;;;4978316;28;20862;-47
2022/04/26 08:27:22;;;;;;;5.60;5.10;;;11.50;84.30;;;;;;4993521;28;20587;-47
2022/04/26 08:29:49;;;;;;;7.70;5.70;;;11.50;84.10;;;;;;4996316;28;20531;-47
2022/04/26 08:32:16;;;;;;;6.50;5.70;;;11.40;84.50;;;;;;4974776;28;20486;-47
2022/04/26 08:34:43;;;;;;;6.47;4.80;;;11.40;84.60;;;;;;4993950;28;20494;-47
2022/04/26 08:37:10;;;;;;;6.67;5.10;;;11.40;84.60;;;;;;4996031;28;20526;-46
2022/04/26 08:39:38;;;;;;;4.77;4.30;;;11.40;84.60;;;;;;4992225;28;20548;-47
2022/04/26 08:42:06;;;;;;;6.70;4.43;;;11.40;84.80;;;;;;4993610;28;20834;-47
2022/04/26 08:44:34;;;;;;;6.30;5.27;;;11.30;84.90;;;;;;4994743;28;20555;-47
2022/04/26 08:52:46;;;;;;;6.70;5.60;;;11.40;84.90;;;;;;4993338;28;20487;-47
2022/04/26 08:55:13;;;;;;;6.93;5.23;;;11.50;85.10;;;;;;4988717;28;20481;-46
2022/04/26 08:57:40;;;;;;;7.47;5.77;;;11.50;85.10;;;;;;4991865;28;20552;-46
2022/04/26 09:00:11;;;;;;;7.20;5.27;;;11.60;84.60;;;;;;4988115;28;20472;-46
2022/04/26 09:02:39;;;;;;;5.40;4.90;;;11.70;84.00;;;;;;4970779;28;20605;-46
2022/04/26 09:05:11;;;;;;;7.03;5.63;;;11.70;83.90;;;;;;4991485;28;20463;-47
2022/04/26 09:07:39;;;;;;;5.27;4.77;;;11.70;84.20;;;;;;4978595;28;20518;-47
2022/04/26 09:10:18;;;;;;;5.47;4.97;;;11.80;84.50;;;;;;4998652;28;20755;-47
2022/04/26 09:13:10;;;;;;;6.17;5.13;;;11.90;84.20;;;;;;4976693;28;20464;-47
2022/04/26 09:15:46;;;;;;;4.97;4.47;;;12.00;83.80;;;;;;4989255;28;21009;-46
2022/04/26 09:18:15;;;;;;;5.40;4.87;;;12.10;83.20;;;;;;4994504;28;20464;-46
2022/04/26 09:20:44;;;;;;;4.83;4.37;;;12.20;83.60;;;;;;4999356;28;20467;-46
2022/04/26 09:23:29;;;;;;;4.70;4.30;;;12.20;83.10;;;;;;4997184;28;20455;-46
2022/04/26 09:26:08;;;;;;;6.37;4.60;;;12.20;82.20;;;;;;4997544;28;20535;-47
2022/04/26 09:28:37;;;;;;;4.97;4.53;;;12.20;81.80;;;;;;5000376;28;20483;-47
2022/04/26 09:31:24;;;;;;;6.07;4.10;;;12.10;81.90;;;;;;4983887;28;20534;-47
2022/04/26 09:33:53;;;;;;;4.70;4.30;;;12.10;82.20;;;;;;4994200;28;20562;-46
2022/04/26 09:36:24;;;;;;;5.70;3.70;;;12.10;81.70;;;;;;4978323;28;20562;-46
2022/04/26 09:38:59;;;;;;;4.90;4.03;;;12.20;81.60;;;;;;4993003;28;20547;-46
2022/04/26 09:41:27;;;;;;;4.73;3.77;;;12.10;81.20;;;;;;4993559;28;20512;-46
2022/04/26 09:44:01;;;;;;;3.47;3.00;;;12.10;81.00;;;;;;4993313;28;20460;-46
2022/04/26 09:46:40;;;;;;;4.13;3.67;;;12.00;80.30;;;;;;4981790;28;20476;-46
2022/04/26 09:49:11;;;;;;;4.97;4.47;;;12.00;81.30;;;;;;4976365;28;20565;-46
2022/04/26 09:51:38;;;;;;;4.87;3.50;;;12.00;81.30;;;;;;4993670;28;20792;-46
2022/04/26 09:54:06;;;;;;;4.97;4.27;;;12.00;81.60;;;;;;4988057;28;20517;-46
2022/04/26 09:56:34;;;;;;;4.63;3.77;;;12.00;81.40;;;;;;4993034;28;20560;-46
2022/04/26 09:59:03;;;;;;;3.90;3.30;;;11.90;80.60;;;;;;4991248;28;20797;-46
2022/04/26 10:01:35;;;;;;;5.17;3.60;;;11.90;81.20;;;;;;4987496;28;20551;-46
2022/04/26 10:04:04;;;;;;;3.57;3.27;;;11.80;80.90;;;;;;4992597;28;20877;-46
2022/04/26 10:06:34;;;;;;;3.70;3.17;;;11.80;81.20;;;;;;4990788;28;20500;-46
2022/04/26 10:09:02;;;;;;;3.23;2.60;;;11.80;81.70;;;;;;4991911;28;20523;-46
2022/04/26 10:11:30;;;;;;;3.03;2.70;;;11.70;81.20;;;;;;4975521;28;20448;-46
2022/04/26 10:13:59;;;;;;;2.73;2.47;;;11.70;79.80;;;;;;4993891;28;20644;-46
2022/04/26 10:16:27;;;;;;;3.03;2.00;;;11.60;80.60;;;;;;4991587;28;20519;-46
2022/04/26 10:19:08;;;;;;;3.53;2.53;;;11.50;80.70;;;;;;4980787;28;20478;-45
2022/04/26 10:21:46;;;;;;;3.33;1.97;;;11.50;81.50;;;;;;4981569;28;20984;-46
2022/04/26 10:24:18;;;;;;;2.07;1.83;;;11.40;81.50;;;;;;4990800;28;20464;-46
2022/04/26 10:26:47;;;;;;;2.50;2.10;;;11.40;81.50;;;;;;4998559;28;20460;-46
2022/04/26 10:29:16;;;;;;;2.37;2.17;;;11.40;81.50;;;;;;4994131;28;20559;-46
2022/04/26 10:31:49;;;;;;;2.30;2.10;;;11.40;81.20;;;;;;4997254;28;20927;-46
2022/04/26 10:34:26;;;;;;;2.40;2.20;;;11.30;81.30;;;;;;5001205;28;20468;-46
2022/04/26 10:36:54;;;;;;;2.40;2.00;;;11.20;81.00;;;;;;4987481;28;20822;-46
2022/04/26 10:39:21;;;;;;;2.67;2.33;;;11.20;81.80;;;;;;4996082;28;20460;-46
2022/04/26 10:41:48;;;;;;;2.50;2.30;;;11.20;82.00;;;;;;4995082;28;21038;-46
2022/04/26 10:44:15;;;;;;;3.70;3.30;;;11.20;82.40;;;;;;4996676;28;20449;-46
2022/04/26 10:46:50;;;;;;;2.13;1.93;;;11.20;82.00;;;;;;4993511;28;20544;-46
2022/04/26 10:49:22;;;;;;;3.27;2.20;;;11.20;81.40;;;;;;4979105;28;20491;-46
2022/04/26 10:51:56;;;;;;;2.13;1.87;;;11.20;81.00;;;;;;5001674;28;20484;-46
2022/04/26 10:54:46;;;;;;;3.33;2.10;;;11.10;81.00;;;;;;4997531;28;20501;-46
2022/04/26 10:57:13;;;;;;;2.13;1.70;;;11.10;81.00;;;;;;4985222;28;20946;-46
2022/04/26 10:59:41;;;;;;;1.60;1.50;;;11.10;80.70;;;;;;4994697;28;20559;-46
2022/04/26 11:02:15;;;;;;;2.20;2.00;;;11.20;81.10;;;;;;4995711;28;20457;-46
2022/04/26 11:04:42;;;;;;;4.80;2.07;;;11.20;81.30;;;;;;4997534;28;20968;-46
2022/04/26 11:07:17;;;;;;;2.40;2.17;;;11.20;81.80;;;;;;4982839;28;20517;-46
2022/04/26 11:09:53;;;;;;;1.90;1.80;;;11.20;82.10;;;;;;4989235;28;20583;-46
2022/04/26 11:12:27;;;;;;;3.70;1.87;;;11.30;81.40;;;;;;4987643;28;20452;-46
2022/04/26 11:14:59;;;;;;;1.93;1.70;;;11.30;81.40;;;;;;4992158;28;20456;-46
2022/04/26 11:17:29;;;;;;;1.60;1.50;;;11.30;81.50;;;;;;4984036;28;20455;-46
2022/04/26 11:19:59;;;;;;;2.33;2.13;;;11.40;81.60;;;;;;4977102;28;21036;-46
2022/04/26 11:22:28;;;;;;;3.07;2.40;;;11.40;81.30;;;;;;4993060;28;20460;-46
2022/04/26 11:28:12;;;;;;;2.70;2.40;;;11.40;81.40;;;;;;4992867;28;20542;-46
2022/04/26 11:30:39;;;;;;;2.93;2.67;;;11.40;81.90;;;;;;4972149;28;20504;-45
2022/04/26 11:33:08;;;;;;;3.10;2.50;;;11.50;81.50;;;;;;4994408;28;20488;-46
2022/04/26 11:35:35;;;;;;;2.70;2.50;;;11.50;81.30;;;;;;4993582;28;20510;-46
2022/04/26 11:38:13;;;;;;;3.53;2.60;;;11.50;80.90;;;;;;4991319;28;20445;-46
2022/04/26 11:40:48;;;;;;;2.70;2.50;;;11.60;81.50;;;;;;4977311;28;20592;-46
2022/04/26 11:43:17;;;;;;;2.10;1.90;;;11.60;82.30;;;;;;4978089;28;20465;-46
2022/04/26 11:45:46;;;;;;;2.50;2.30;;;11.60;81.90;;;;;;4987692;28;20461;-46
2022/04/26 11:48:15;;;;;;;2.70;2.17;;;11.60;81.80;;;;;;4989481;28;21284;-46
2022/04/26 11:50:44;;;;;;;1.90;1.80;;;11.70;81.10;;;;;;4989777;28;20868;-46
2022/04/26 11:53:13;;;;;;;3.00;2.70;;;11.80;81.70;;;;;;4991021;28;20920;-46
2022/04/26 11:55:44;;;;;;;2.10;2.00;;;11.90;81.90;;;;;;4989030;28;21011;-46
2022/04/26 11:58:19;;;;;;;2.30;2.07;;;12.00;82.80;;;;;;4988532;28;20827;-46
2022/04/26 12:00:50;;;;;;;2.10;1.90;;;12.30;82.60;;;;;;4988683;28;20487;-46
2022/04/26 12:03:18;;;;;;;2.23;1.97;;;12.40;80.80;;;;;;4986238;28;20470;-46
2022/04/26 12:05:49;;;;;;;2.20;2.00;;;12.60;81.00;;;;;;4993353;28;20488;-46
2022/04/26 12:08:16;;;;;;;3.13;2.23;;;12.70;81.40;;;;;;4996060;28;20555;-46
2022/04/26 12:10:44;;;;;;;3.50;2.10;;;12.90;79.80;;;;;;4994149;28;21091;-46
2022/04/26 12:13:11;;;;;;;3.23;2.30;;;13.00;79.70;;;;;;4992494;28;20554;-46
2022/04/26 12:15:38;;;;;;;2.60;2.30;;;13.10;79.60;;;;;;4988949;28;20560;-47
2022/04/26 12:18:13;;;;;;;1.70;1.60;;;13.30;79.80;;;;;;4993672;28;20980;-47
2022/04/26 12:21:02;;;;;;;2.37;2.20;;;13.40;78.40;;;;;;4991833;28;20457;-46
2022/04/26 12:23:31;;;;;;;2.37;1.90;;;13.40;77.70;;;;;;4976705;28;20548;-46
2022/04/26 12:26:02;;;;;;;1.87;1.77;;;13.50;77.60;;;;;;4991074;28;20468;-46
2022/04/26 12:28:29;;;;;;;2.13;1.93;;;13.50;77.90;;;;;;4980290;28;20563;-46
2022/04/26 12:30:57;;;;;;;2.30;2.10;;;13.60;78.30;;;;;;4978207;28;21002;-46
2022/04/26 12:33:30;;;;;;;2.30;2.10;;;13.60;76.40;;;;;;4991029;28;20473;-46
2022/04/26 12:36:04;;;;;;;2.30;1.70;;;13.50;76.60;;;;;;4991343;28;20521;-46
2022/04/26 12:38:47;;;;;;;2.03;1.80;;;13.50;75.40;;;;;;4992091;28;20464;-46
2022/04/26 12:41:21;;;;;;;2.70;2.50;;;13.40;77.00;;;;;;4991631;28;20475;-46
2022/04/26 12:44:01;;;;;;;2.37;2.17;;;13.30;77.30;;;;;;4971364;28;20563;-46
2022/04/26 12:46:27;;;;;;;2.07;1.90;;;13.30;76.90;;;;;;4993138;28;20972;-46
2022/04/26 12:51:54;;;;;;;3.13;2.30;;;13.00;77.60;;;;;;4993835;28;21037;-46
2022/04/26 12:54:20;;;;;;;3.23;2.93;;;13.00;78.80;;;;;;4996705;28;20556;-46
2022/04/26 12:57:14;;;;;;;2.77;2.47;;;13.00;79.50;;;;;;4980731;28;20488;-46
2022/04/26 12:59:41;;;;;;;4.00;2.57;;;13.00;78.70;;;;;;4994663;28;20479;-46
2022/04/26 13:02:09;;;;;;;2.23;2.00;;;13.00;78.80;;;;;;4997316;28;20472;-46
2022/04/26 13:04:36;;;;;;;2.40;2.13;;;12.90;78.40;;;;;;4996781;28;20961;-46
2022/04/26 13:07:04;;;;;;;2.57;1.40;;;12.90;77.90;;;;;;4997023;28;20455;-46
2022/04/26 13:09:34;;;;;;;1.53;1.30;;;12.80;78.00;;;;;;4997116;28;20504;-46
2022/04/26 13:12:01;;;;;;;1.70;1.60;;;12.70;78.50;;;;;;4998268;28;20472;-46
2022/04/26 13:14:28;;;;;;;1.60;1.50;;;12.60;78.10;;;;;;4995703;28;20954;-46
2022/04/26 13:17:14;;;;;;;1.93;1.37;;;12.50;77.90;;;;;;4991014;28;20467;-46
2022/04/26 13:19:41;;;;;;;1.90;1.80;;;12.30;78.30;;;;;;4986219;28;20928;-46
2022/04/26 13:22:08;;;;;;;1.50;1.40;;;12.20;78.90;;;;;;4997441;28;20470;-46
2022/04/26 13:24:35;;;;;;;1.43;1.20;;;12.10;79.30;;;;;;4997169;28;20519;-46
2022/04/26 13:27:03;;;;;;;1.97;1.50;;;12.10;79.90;;;;;;4990420;28;20457;-46
2022/04/26 13:29:29;;;;;;;2.23;1.90;;;12.00;80.00;;;;;;4985488;28;20507;-46
2022/04/26 13:31:58;;;;;;;2.03;1.77;;;11.90;80.50;;;;;;4992020;28;20487;-45
2022/04/26 13:34:25;;;;;;;2.80;2.17;;;11.90;80.30;;;;;;4991487;28;20491;-46
2022/04/26 13:37:03;;;;;;;1.90;1.43;;;11.90;80.00;;;;;;4982297;28;20456;-46
2022/04/26 13:39:29;;;;;;;1.70;1.60;;;11.80;80.20;;;;;;4994476;28;20471;-46
2022/04/26 13:41:56;;;;;;;2.97;2.10;;;11.80;80.10;;;;;;4993717;28;20476;-46
2022/04/26 13:44:23;;;;;;;1.80;1.50;;;11.80;80.00;;;;;;4990940;28;20563;-46
2022/04/26 13:46:50;;;;;;;3.33;2.03;;;11.80;80.20;;;;;;4992858;28;20469;-46
2022/04/26 13:49:17;;;;;;;1.87;1.63;;;11.80;80.30;;;;;;4994865;28;20446;-46
2022/04/26 13:51:44;;;;;;;1.40;1.30;;;11.70;80.20;;;;;;4997747;28;20526;-46
2022/04/26 13:54:11;;;;;;;1.80;1.67;;;11.70;80.10;;;;;;4998655;28;20473;-46
2022/04/26 13:56:38;;;;;;;2.03;1.80;;;11.80;80.10;;;;;;4991564;28;20547;-46
2022/04/26 13:59:05;;;;;;;2.30;2.10;;;11.70;79.50;;;;;;4976598;28;20593;-46
2022/04/26 14:01:32;;;;;;;2.20;1.97;;;11.80;79.60;;;;;;4993571;28;20467;-46
2022/04/26 14:03:59;;;;;;;2.13;1.93;;;11.80;79.60;;;;;;4992389;28;20460;-46
2022/04/26 14:06:26;;;;;;;2.10;1.90;;;11.70;79.80;;;;;;4977053;28;20460;-46
2022/04/26 14:08:53;;;;;;;2.27;2.07;;;11.70;80.20;;;;;;4990287;28;20488;-46
2022/04/26 14:11:21;;;;;;;1.67;1.57;;;11.80;80.50;;;;;;4995166;28;20495;-46
2022/04/26 14:22:30;;;;;;;3.00;2.17;;;11.90;79.70;;;;;;4991550;28;20467;-46
2022/04/26 14:25:03;;;;;;;2.80;2.20;;;11.90;79.60;;;;;;4995405;28;20957;-46
2022/04/26 14:27:31;;;;;;;3.10;2.43;;;11.90;79.80;;;;;;4995109;28;20461;-46
2022/04/26 14:29:58;;;;;;;2.30;2.10;;;11.90;79.80;;;;;;4992027;28;21017;-46
2022/04/26 14:32:25;;;;;;;3.47;2.30;;;11.90;79.90;;;;;;4991471;28;20492;-45
2022/04/26 14:34:53;;;;;;;2.77;2.33;;;12.00;80.20;;;;;;4983976;28;20531;-46
2022/04/26 14:37:22;;;;;;;2.43;2.23;;;12.00;80.00;;;;;;4973098;28;20932;-46
2022/04/26 14:39:50;;;;;;;3.53;2.50;;;12.00;79.80;;;;;;4992440;28;20487;-46
2022/04/26 14:42:17;;;;;;;3.43;2.77;;;11.90;79.20;;;;;;4983217;28;21064;-46
2022/04/26 14:44:45;;;;;;;3.77;3.27;;;11.90;80.00;;;;;;4981940;28;20456;-45
2022/04/26 14:47:13;;;;;;;3.67;2.90;;;11.80;80.40;;;;;;4993393;28;20466;-46
2022/04/26 14:49:40;;;;;;;5.33;4.30;;;11.80;81.10;;;;;;4992608;28;20464;-46
2022/04/26 14:52:07;;;;;;;4.50;3.90;;;11.80;81.20;;;;;;4990386;28;20445;-46
2022/04/26 14:54:55;;;;;;;5.43;4.77;;;11.80;81.80;;;;;;4988987;28;20473;-46
2022/04/26 14:57:22;;;;;;;3.80;3.50;;;11.80;81.60;;;;;;4991070;28;21048;-46
2022/04/26 14:59:49;;;;;;;4.93;4.37;;;11.80;81.50;;;;;;4975764;28;20876;-46
2022/04/26 15:02:17;;;;;;;5.27;4.30;;;11.70;81.70;;;;;;4975074;28;21045;-46
2022/04/26 15:04:48;;;;;;;4.07;3.60;;;11.70;81.60;;;;;;4995382;28;20464;-46
2022/04/26 15:07:16;;;;;;;5.43;4.20;;;11.70;81.30;;;;;;4991632;28;20467;-46
2022/04/26 15:09:43;;;;;;;5.87;4.97;;;11.70;81.50;;;;;;4995961;28;20473;-46
2022/04/26 15:17:48;;;;;;;5.77;4.90;;;11.70;81.40;;;;;;4992118;28;20492;-46
2022/04/26 15:20:17;;;;;;;6.70;4.93;;;11.60;81.60;;;;;;4994035;28;20503;-46
2022/04/26 15:22:44;;;;;;;5.30;4.77;;;11.70;81.80;;;;;;4992982;28;20469;-46
2022/04/26 15:25:11;;;;;;;4.67;3.90;;;11.70;81.20;;;;;;4978754;28;20467;-46
2022/04/26 15:27:38;;;;;;;6.23;5.33;;;11.70;81.30;;;;;;4973319;28;20987;-46
2022/04/26 15:30:10;;;;;;;7.10;5.27;;;11.60;81.60;;;;;;4990404;28;20522;-46
2022/04/26 15:32:37;;;;;;;5.17;4.70;;;11.60;81.90;;;;;;4992740;28;20497;-45
2022/04/26 15:35:05;;;;;;;4.93;4.40;;;11.50;81.80;;;;;;4988258;28;21042;-46
2022/04/26 15:37:34;;;;;;;5.73;5.23;;;11.50;82.20;;;;;;4993003;28;20468;-46
2022/04/26 15:40:01;;;;;;;6.23;5.60;;;11.40;82.20;;;;;;4976227;28;21597;-46
2022/04/26 15:42:31;;;;;;;5.37;4.63;;;11.40;82.10;;;;;;4993702;28;20516;-46
2022/04/26 15:44:59;;;;;;;6.43;5.83;;;11.40;82.30;;;;;;4990537;28;20464;-46
2022/04/26 15:47:26;;;;;;;6.93;5.80;;;11.40;82.80;;;;;;4991561;28;20499;-46
2022/04/26 15:49:52;;;;;;;8.00;5.27;;;11.40;82.60;;;;;;4991944;28;20547;-46
2022/04/26 15:52:19;;;;;;;6.50;5.80;;;11.40;82.80;;;;;;4989679;28;20978;-46
2022/04/26 15:54:46;;;;;;;6.40;5.73;;;11.50;82.80;;;;;;4970317;28;20464;-46
2022/04/26 15:57:13;;;;;;;5.67;5.07;;;11.50;82.80;;;;;;4993827;28;20469;-46
2022/04/26 15:59:39;;;;;;;6.97;6.07;;;11.50;82.60;;;;;;4993337;28;20461;-46
2022/04/26 16:02:07;;;;;;;5.73;4.63;;;11.50;82.20;;;;;;4989726;28;20567;-46
2022/04/26 16:04:35;;;;;;;7.10;6.40;;;11.50;81.90;;;;;;4994051;28;20488;-46
2022/04/26 16:07:03;;;;;;;8.40;5.60;;;11.50;82.20;;;;;;4993337;28;20476;-46
2022/04/26 16:20:34;;;;;;;7.20;5.63;;;11.50;81.30;;;;;;4993914;28;20464;-46
2022/04/26 16:23:03;;;;;;;5.23;4.73;;;11.50;81.70;;;;;;4980758;28;20464;-46
2022/04/26 16:25:31;;;;;;;7.90;5.90;;;11.40;81.80;;;;;;4999870;28;20463;-46
2022/04/26 16:28:00;;;;;;;4.97;4.50;;;11.40;81.50;;;;;;4996258;28;20936;-46
2022/04/26 16:30:29;;;;;;;5.43;4.93;;;11.40;81.20;;;;;;4997735;28;20578;-45
2022/04/26 16:33:04;;;;;;;6.43;5.43;;;11.50;81.80;;;;;;4996311;28;20978;-46
2022/04/26 16:35:32;;;;;;;5.77;5.00;;;11.40;81.70;;;;;;4994119;28;20471;-46
2022/04/26 16:37:59;;;;;;;5.03;4.50;;;11.40;82.10;;;;;;4979249;28;20485;-46
2022/04/26 16:40:28;;;;;;;6.43;5.27;;;11.40;81.10;;;;;;4995147;28;20504;-46
2022/04/26 16:42:54;;;;;;;6.50;5.40;;;11.40;81.40;;;;;;4997943;28;20474;-46
2022/04/26 16:45:22;;;;;;;4.90;4.33;;;11.40;81.10;;;;;;5001831;28;20482;-46
2022/04/26 16:47:51;;;;;;;6.60;4.90;;;11.40;81.50;;;;;;4983290;28;20471;-46
2022/04/26 16:50:18;;;;;;;5.80;4.30;;;11.40;81.20;;;;;;4993446;28;21059;-46
2022/04/26 16:52:49;;;;;;;6.27;4.70;;;11.30;81.40;;;;;;4980674;28;20997;-46
2022/04/26 16:55:16;;;;;;;5.60;4.83;;;11.30;81.70;;;;;;4998505;28;20908;-46
2022/04/26 16:57:44;;;;;;;4.80;4.40;;;11.30;81.10;;;;;;4994257;28;21033;-46
2022/04/26 17:00:14;;;;;;;5.13;4.70;;;11.40;81.30;;;;;;4996739;28;20839;-46
2022/04/26 17:02:41;;;;;;;5.67;5.17;;;11.40;81.50;;;;;;4998215;28;20556;-46
2022/04/26 17:05:08;;;;;;;5.23;4.77;;;11.40;81.10;;;;;;5001536;28;20494;-46
2022/04/26 17:07:36;;;;;;;5.70;4.80;;;11.40;80.60;;;;;;4998641;28;20464;-46
2022/04/26 17:10:03;;;;;;;5.73;4.70;;;11.50;80.80;;;;;;4993658;28;20460;-46
2022/04/26 17:12:30;;;;;;;6.00;4.90;;;11.50;79.80;;;;;;4969760;28;20586;-46
2022/04/26 17:14:56;;;;;;;6.07;5.03;;;11.50;78.90;;;;;;5000389;28;20471;-46